Victory Chimes — WAV4111 — position and weather

sailwx.info

Track history (hours):
 
Tides and Currents Weather Stations Pressure Air Temp Water Temp Dewpoint Dewpoint Depression Visibility Wind Speed Wind Dir Waves Ship Positions

Victory Chimes

Owner: VICTORY CHIMES INC, ROCKLAND, ME. More information available from US FCC via Universal Licensing System and Coast Guard Vessel Documentation Center.

Last reported at 2017-Sep-29 18:12 UTC. Time now 2017-Nov-23 18:52 UTC.
Position N 44°09' W 068°53'.
Warning: this ship's position is 55 days out of date.

Length 38 m.

Type: Sailing vessel. MMSI: 367093020.

Date/timePositionNaut miles runAvg speedWind from/ knotsBaromVisibWave heightAir tempDewpointWater temp
2017-Sep-29 18:12N 44°09' W 068°53'1 2.6
2017-Sep-29 17:59N 44°10' W 068°54'2 0.1
2017-Sep-28 16:10N 44°11' W 068°56'7 4.5
2017-Sep-28 14:40N 44°07' W 069°03'1 3.4
2017-Sep-28 14:27N 44°07' W 069°04'1 0.0
2017-Sep-26 13:37N 44°06' W 069°06'1 1.9
2017-Sep-26 13:10N 44°06' W 069°05'1 3.2
2017-Sep-26 12:57N 44°06' W 069°04'0 0.3
2017-Sep-26 12:20N 44°06' W 069°04'0 0.0
2017-Sep-26 08:27N 44°05' W 069°04'0 0.1
2017-Sep-26 07:53N 44°05' W 069°04'0 0.0
2017-Sep-26 07:26N 44°06' W 069°04'0 0.0
2017-Sep-26 06:50N 44°05' W 069°04'0 0.0
2017-Sep-26 06:20N 44°05' W 069°04'0 0.0
2017-Sep-26 05:38N 44°05' W 069°04'0 0.0
2017-Sep-26 05:26N 44°05' W 069°04'0 0.0
2017-Sep-26 04:47N 44°05' W 069°04'0 0.0
2017-Sep-26 03:56N 44°06' W 069°04'0 0.0
2017-Sep-26 03:24N 44°05' W 069°04'0 0.0
2017-Sep-26 02:56N 44°05' W 069°04'0 0.0
2017-Sep-26 01:41N 44°05' W 069°04'0 0.0
2017-Sep-26 00:26N 44°05' W 069°04'0 0.1
2017-Sep-25 23:50N 44°05' W 069°04'0 0.0
2017-Sep-25 21:51N 44°05' W 069°04'0 0.1
2017-Sep-25 21:29N 44°05' W 069°04'2 1.7
2017-Sep-25 20:11N 44°07' W 069°01'1 1.3
2017-Sep-25 19:44N 44°08' W 069°01'1 0.8
2017-Sep-25 18:56N 44°08' W 069°01'1 3.2
2017-Sep-25 18:29N 44°08' W 068°59'1 2.9
2017-Sep-25 18:00N 44°09' W 068°57'2 3.1
2017-Sep-25 17:26N 44°09' W 068°55'2 3.1
2017-Sep-25 16:57N 44°10' W 068°53'  
Track history (hours):
 
Tides and Currents Weather Stations Pressure Air Temp Water Temp Dewpoint Dewpoint Depression Visibility Wind Speed Wind Dir Waves Ship Positions

Victory Chimes

Owner: VICTORY CHIMES INC, ROCKLAND, ME. More information available from US FCC via Universal Licensing System and Coast Guard Vessel Documentation Center.

Last reported at 2017-Sep-29 18:12 UTC. Time now 2017-Nov-23 18:52 UTC.
Position N 44°09' W 068°53'.
Warning: this ship's position is 55 days out of date.

Length 38 m.

Type: Sailing vessel. MMSI: 367093020.

Date/timePositionNaut miles runAvg speedWind from/ knotsBaromVisibWave heightAir tempDewpointWater temp
2017-Sep-29 18:12N 44°09' W 068°53'1 2.6
2017-Sep-29 17:59N 44°10' W 068°54'2 0.1
2017-Sep-28 16:10N 44°11' W 068°56'7 4.5
2017-Sep-28 14:40N 44°07' W 069°03'1 3.4
2017-Sep-28 14:27N 44°07' W 069°04'1 0.0
2017-Sep-26 13:37N 44°06' W 069°06'1 1.9
2017-Sep-26 13:10N 44°06' W 069°05'1 3.2
2017-Sep-26 12:57N 44°06' W 069°04'0 0.3
2017-Sep-26 12:20N 44°06' W 069°04'0 0.0
2017-Sep-26 08:27N 44°05' W 069°04'0 0.1
2017-Sep-26 07:53N 44°05' W 069°04'0 0.0
2017-Sep-26 07:26N 44°06' W 069°04'0 0.0
2017-Sep-26 06:50N 44°05' W 069°04'0 0.0
2017-Sep-26 06:20N 44°05' W 069°04'0 0.0
2017-Sep-26 05:38N 44°05' W 069°04'0 0.0
2017-Sep-26 05:26N 44°05' W 069°04'0 0.0
2017-Sep-26 04:47N 44°05' W 069°04'0 0.0
2017-Sep-26 03:56N 44°06' W 069°04'0 0.0
2017-Sep-26 03:24N 44°05' W 069°04'0 0.0
2017-Sep-26 02:56N 44°05' W 069°04'0 0.0
2017-Sep-26 01:41N 44°05' W 069°04'0 0.0
2017-Sep-26 00:26N 44°05' W 069°04'0 0.1
2017-Sep-25 23:50N 44°05' W 069°04'0 0.0
2017-Sep-25 21:51N 44°05' W 069°04'0 0.1
2017-Sep-25 21:29N 44°05' W 069°04'2 1.7
2017-Sep-25 20:11N 44°07' W 069°01'1 1.3
2017-Sep-25 19:44N 44°08' W 069°01'1 0.8
2017-Sep-25 18:56N 44°08' W 069°01'1 3.2
2017-Sep-25 18:29N 44°08' W 068°59'1 2.9
2017-Sep-25 18:00N 44°09' W 068°57'2 3.1
2017-Sep-25 17:26N 44°09' W 068°55'2 3.1
2017-Sep-25 16:57N 44°10' W 068°53'  

Dump ship's entire track history